createdAt,value
2019-01-03T00:02:02.953Z,21.87
2019-01-03T00:04:51.441Z,17.03
2019-01-03T00:07:37.791Z,21.20
2019-01-03T00:10:08.009Z,16.53
2019-01-03T00:12:46.850Z,19.30
2019-01-03T00:15:16.975Z,18.90
2019-01-03T00:17:49.953Z,21.13
2019-01-03T00:20:31.998Z,22.30
2019-01-03T00:23:02.031Z,17.93
2019-01-03T00:25:48.453Z,17.47
2019-01-03T00:28:18.936Z,15.83
2019-01-03T00:31:05.449Z,16.47
2019-01-03T00:33:35.607Z,17.13
2019-01-03T00:36:22.441Z,16.03
2019-01-03T00:39:07.875Z,22.40
2019-01-03T00:41:44.010Z,23.37
2019-01-03T00:44:16.714Z,19.70
2019-01-03T00:47:03.047Z,23.03
2019-01-03T00:49:33.478Z,18.37
2019-01-03T00:52:03.517Z,20.10
2019-01-03T00:54:33.586Z,18.20
2019-01-03T00:57:21.988Z,18.13
2019-01-03T01:00:00.921Z,27.43
2019-01-03T01:02:31.510Z,16.57
2019-01-03T01:05:17.933Z,17.53
2019-01-03T01:07:47.990Z,21.73
2019-01-03T01:10:26.933Z,22.47
2019-01-03T01:13:03.093Z,19.07
2019-01-03T01:15:49.557Z,22.23
2019-01-03T01:18:22.545Z,18.30
2019-01-03T01:21:07.377Z,18.90
2019-01-03T01:23:47.030Z,16.27
2019-01-03T01:26:23.331Z,19.63
2019-01-03T01:28:53.506Z,22.60
2019-01-03T01:31:26.280Z,25.40
2019-01-03T01:34:15.374Z,20.60
2019-01-03T01:36:48.549Z,24.87
2019-01-03T01:39:21.726Z,14.03
2019-01-03T01:42:07.942Z,23.00
2019-01-03T01:44:56.048Z,22.97
2019-01-03T01:47:26.359Z,22.87
2019-01-03T01:50:02.400Z,24.77
2019-01-03T01:52:35.153Z,24.50
2019-01-03T01:55:05.203Z,24.67
2019-01-03T01:57:38.202Z,24.70
2019-01-03T02:00:12.999Z,21.30
2019-01-03T02:02:55.202Z,21.30
2019-01-03T02:05:30.914Z,26.30
2019-01-03T02:08:03.891Z,19.23
2019-01-03T02:10:48.936Z,16.73
2019-01-03T02:13:25.263Z,18.30
2019-01-03T02:16:01.251Z,18.27
2019-01-03T02:18:34.852Z,28.23
2019-01-03T02:21:04.944Z,25.63
2019-01-03T02:23:41.370Z,23.27
2019-01-03T02:26:11.411Z,25.63
2019-01-03T02:28:47.538Z,21.10
2019-01-03T02:31:23.632Z,17.87
2019-01-03T02:34:05.947Z,22.90
2019-01-03T02:36:42.478Z,21.23
2019-01-03T02:39:29.187Z,22.00
2019-01-03T02:42:08.292Z,18.53
2019-01-03T02:44:38.723Z,22.97
2019-01-03T02:47:25.188Z,23.97
2019-01-03T02:49:55.770Z,22.60
2019-01-03T02:52:37.618Z,22.23
2019-01-03T02:55:16.816Z,19.80
2019-01-03T02:58:04.995Z,24.47
2019-01-03T03:00:41.028Z,23.67
2019-01-03T03:03:17.542Z,22.93
2019-01-03T03:05:53.423Z,18.67
2019-01-03T03:08:23.492Z,24.40
2019-01-03T03:11:10.138Z,23.47
2019-01-03T03:13:43.212Z,29.70
2019-01-03T03:16:13.272Z,18.43
2019-01-03T03:18:43.408Z,23.57
2019-01-03T03:21:22.211Z,21.20
2019-01-03T03:23:52.291Z,18.23
2019-01-03T03:26:25.460Z,23.40
2019-01-03T03:28:55.500Z,24.87
2019-01-03T03:31:41.694Z,18.00
2019-01-03T03:34:23.820Z,19.93
2019-01-03T03:36:53.985Z,22.77
2019-01-03T03:39:29.930Z,19.17
2019-01-03T03:42:16.350Z,25.57
2019-01-03T03:44:49.047Z,18.57
2019-01-03T03:47:34.319Z,25.87
2019-01-03T03:50:13.607Z,26.00
2019-01-03T03:53:00.092Z,23.37
2019-01-03T03:55:39.583Z,19.80
2019-01-03T03:58:15.465Z,18.67
2019-01-03T04:01:02.160Z,19.63
2019-01-03T04:03:38.428Z,21.43
2019-01-03T04:06:11.309Z,23.77
2019-01-03T04:08:44.063Z,18.93
2019-01-03T04:11:14.109Z,22.87
2019-01-03T04:13:46.753Z,18.77
2019-01-03T04:16:19.539Z,19.83
2019-01-03T04:19:04.306Z,18.97
2019-01-03T04:21:34.715Z,20.53
2019-01-03T04:24:04.873Z,20.97
2019-01-03T04:26:40.645Z,17.27
2019-01-03T04:29:13.610Z,18.43
2019-01-03T04:31:43.645Z,19.27
2019-01-03T04:34:30.099Z,23.83
2019-01-03T04:37:02.961Z,19.70
2019-01-03T04:39:42.202Z,22.60
2019-01-03T04:42:21.018Z,21.33
2019-01-03T04:45:07.422Z,21.10
2019-01-03T04:47:52.747Z,18.77
2019-01-03T04:50:38.301Z,20.00
2019-01-03T04:53:24.328Z,21.63
2019-01-03T04:56:03.482Z,24.83
2019-01-03T04:58:36.984Z,18.50
2019-01-03T05:02:00.275Z,24.60
2019-01-03T05:04:30.394Z,21.87
2019-01-03T05:07:16.950Z,18.53
2019-01-03T05:09:52.975Z,21.20
2019-01-03T05:12:25.801Z,23.40
2019-01-03T05:15:07.942Z,17.83
2019-01-03T05:17:38.042Z,21.63
2019-01-03T05:20:20.955Z,23.03
2019-01-03T05:23:00.167Z,19.50
2019-01-03T05:25:30.208Z,22.80
2019-01-03T05:28:00.237Z,28.00
2019-01-03T05:30:42.670Z,19.93
2019-01-03T05:33:27.778Z,24.00
2019-01-03T05:36:12.983Z,20.80
2019-01-03T05:38:51.791Z,21.20
2019-01-03T05:41:38.622Z,20.73
2019-01-03T05:44:24.813Z,22.63
2019-01-03T05:46:57.553Z,18.43
2019-01-03T05:49:44.114Z,20.73
2019-01-03T05:52:14.149Z,22.47
2019-01-03T05:54:59.735Z,20.57
2019-01-03T05:57:35.664Z,16.80
2019-01-03T06:00:09.856Z,23.37
2019-01-03T06:02:48.586Z,17.30
2019-01-03T06:05:18.643Z,20.17
2019-01-03T06:07:48.688Z,22.00
2019-01-03T06:10:21.442Z,23.03
2019-01-03T06:12:54.484Z,20.63
2019-01-03T06:15:30.517Z,20.10
2019-01-03T06:18:03.591Z,22.33
2019-01-03T06:20:49.990Z,18.47
2019-01-03T06:23:23.291Z,21.53
2019-01-03T06:26:08.473Z,20.43
2019-01-03T06:28:38.559Z,23.23
2019-01-03T06:31:11.757Z,22.07
2019-01-03T06:33:51.093Z,24.03
2019-01-03T06:36:36.454Z,24.57
2019-01-03T06:39:10.653Z,22.87
2019-01-03T06:41:49.875Z,19.33
2019-01-03T06:44:22.893Z,21.07
2019-01-03T06:47:04.905Z,21.83
2019-01-03T06:49:46.973Z,22.90
2019-01-03T06:52:17.087Z,20.90
2019-01-03T06:54:50.184Z,21.77
2019-01-03T06:57:37.167Z,19.10
2019-01-03T07:00:11.587Z,22.80
2019-01-03T07:02:47.669Z,19.30
2019-01-03T07:05:26.816Z,22.30
2019-01-03T07:08:13.693Z,20.90
2019-01-03T07:11:02.096Z,17.33
2019-01-03T07:13:41.191Z,18.93
2019-01-03T07:16:13.933Z,22.00
2019-01-03T07:18:59.101Z,17.53
2019-01-03T07:21:32.254Z,19.43
2019-01-03T07:24:18.730Z,18.63
2019-01-03T07:27:06.693Z,18.27
2019-01-03T07:29:39.818Z,20.87
2019-01-03T07:32:13.058Z,22.77
2019-01-03T07:34:43.095Z,22.77
2019-01-03T07:37:13.619Z,22.70
2019-01-03T07:40:02.163Z,22.67
2019-01-03T07:42:32.226Z,16.17
2019-01-03T07:45:20.307Z,25.57
2019-01-03T07:48:06.867Z,19.23
2019-01-03T07:50:46.586Z,22.40
2019-01-03T07:53:33.033Z,25.50
2019-01-03T07:56:15.122Z,21.03
2019-01-03T07:59:03.287Z,20.33
2019-01-03T08:01:33.442Z,23.87
2019-01-03T08:04:20.026Z,21.30
2019-01-03T08:06:53.149Z,20.57
2019-01-03T08:09:40.237Z,17.40
2019-01-03T08:12:28.526Z,16.67
2019-01-03T08:14:58.549Z,21.47
2019-01-03T08:17:40.657Z,22.90
2019-01-03T08:20:26.074Z,21.20
2019-01-03T08:22:58.857Z,15.97
2019-01-03T08:25:45.144Z,20.83
2019-01-03T08:28:31.506Z,23.20
2019-01-03T08:31:20.093Z,16.40
2019-01-03T08:33:52.796Z,20.37
2019-01-03T08:36:22.870Z,19.13
2019-01-03T08:38:59.081Z,21.50
2019-01-03T08:41:29.336Z,21.43
2019-01-03T08:43:59.821Z,18.23
2019-01-03T08:46:32.867Z,22.00
2019-01-03T08:49:19.477Z,20.93
2019-01-03T08:52:06.378Z,20.43
2019-01-03T08:54:48.737Z,18.40
2019-01-03T08:57:35.342Z,21.93
2019-01-03T09:00:09.947Z,24.70
2019-01-03T09:02:40.041Z,14.30
2019-01-03T09:05:15.938Z,27.67
2019-01-03T09:07:48.773Z,23.57
2019-01-03T09:10:25.137Z,22.27
2019-01-03T09:13:01.082Z,22.27
2019-01-03T09:15:58.251Z,21.80
2019-01-03T09:18:46.676Z,18.67
2019-01-03T09:21:33.706Z,28.63
2019-01-03T09:24:20.216Z,20.47
2019-01-03T09:27:02.565Z,26.07
2019-01-03T09:29:32.695Z,26.03
2019-01-03T09:32:08.275Z,22.40
2019-01-03T09:34:42.134Z,24.30
2019-01-03T09:37:12.382Z,22.73
2019-01-03T09:39:42.416Z,19.77
2019-01-03T09:42:15.243Z,23.00
2019-01-03T09:44:46.457Z,19.30
2019-01-03T09:47:14.893Z,16.83
2019-01-03T09:49:43.299Z,23.23
2019-01-03T09:52:12.178Z,19.20
2019-01-03T09:54:40.573Z,20.77
2019-01-03T09:57:09.345Z,19.07
2019-01-03T09:59:37.985Z,17.53
2019-01-03T10:02:06.803Z,16.80
2019-01-03T10:04:35.286Z,17.73
2019-01-03T10:07:04.025Z,19.23
2019-01-03T10:09:32.421Z,15.80
2019-01-03T10:12:00.823Z,20.43
2019-01-03T10:14:29.401Z,22.83
2019-01-03T10:16:57.865Z,24.60
2019-01-03T10:19:26.377Z,19.67
2019-01-03T10:21:55.004Z,15.40
2019-01-03T10:24:23.469Z,18.90
2019-01-03T10:26:51.847Z,18.30
2019-01-03T10:29:20.291Z,17.77
2019-01-03T10:31:48.734Z,17.23
2019-01-03T10:34:17.175Z,21.07
2019-01-03T10:36:45.579Z,17.40
2019-01-03T10:39:14.059Z,18.70
2019-01-03T10:41:42.509Z,18.63
2019-01-03T10:44:10.906Z,20.90
2019-01-03T10:46:39.340Z,20.20
2019-01-03T10:49:07.735Z,17.87
2019-01-03T10:51:36.552Z,16.23
2019-01-03T10:54:04.944Z,15.93
2019-01-03T10:56:33.386Z,19.03
2019-01-03T10:59:01.785Z,14.93
2019-01-03T11:01:30.468Z,19.47
2019-01-03T11:03:58.884Z,16.30
2019-01-03T11:06:27.334Z,15.37
2019-01-03T11:08:55.741Z,15.60
2019-01-03T11:11:24.277Z,14.93
2019-01-03T11:13:52.668Z,23.87
2019-01-03T11:16:21.070Z,13.63
2019-01-03T11:18:49.800Z,16.07
2019-01-03T11:21:18.410Z,17.93
2019-01-03T11:23:46.833Z,18.27
2019-01-03T11:26:15.374Z,16.87
2019-01-03T11:28:43.814Z,16.37
2019-01-03T11:31:12.213Z,18.43
2019-01-03T11:33:40.656Z,17.13
2019-01-03T11:36:09.056Z,18.57
2019-01-03T11:38:37.459Z,18.17
2019-01-03T11:41:06.263Z,19.07
2019-01-03T11:43:34.821Z,17.87
2019-01-03T11:46:03.225Z,21.97
2019-01-03T11:48:31.892Z,19.93
2019-01-03T11:51:00.329Z,19.50
2019-01-03T11:53:28.765Z,20.07
2019-01-03T11:55:57.344Z,17.23
2019-01-03T11:58:25.757Z,14.40
2019-01-03T12:00:54.229Z,12.80
2019-01-03T12:03:22.635Z,18.57
2019-01-03T12:05:51.255Z,16.97
2019-01-03T12:08:19.664Z,10.57
2019-01-03T12:10:48.060Z,11.87
2019-01-03T12:13:16.525Z,13.70
2019-01-03T12:15:44.957Z,12.23
2019-01-03T12:18:13.649Z,13.37
2019-01-03T12:20:42.046Z,12.07
2019-01-03T12:23:10.544Z,12.57
2019-01-03T12:25:39.101Z,13.60
2019-01-03T12:28:07.493Z,11.20
2019-01-03T12:30:35.980Z,11.13
2019-01-03T12:33:04.450Z,10.77
2019-01-03T12:35:32.853Z,11.53
2019-01-03T12:38:01.386Z,13.97
2019-01-03T12:40:30.018Z,12.73
2019-01-03T12:42:58.445Z,15.13
2019-01-03T12:45:26.845Z,13.73
2019-01-03T12:47:55.277Z,13.83
2019-01-03T12:50:23.677Z,15.57
2019-01-03T12:52:52.176Z,18.90
2019-01-03T12:55:20.705Z,21.57
2019-01-03T12:57:49.161Z,17.73
2019-01-03T13:00:18.055Z,17.90
2019-01-03T13:02:46.490Z,21.70
2019-01-03T13:05:15.308Z,19.73
2019-01-03T13:07:44.887Z,20.13
2019-01-03T13:10:13.400Z,21.10
2019-01-03T13:12:41.830Z,21.03
2019-01-03T13:15:10.415Z,21.57
2019-01-03T13:17:38.837Z,20.50
2019-01-03T13:20:08.436Z,19.80
2019-01-03T13:22:36.930Z,21.67
2019-01-03T13:25:06.018Z,23.17
2019-01-03T13:27:34.442Z,22.07
2019-01-03T13:30:03.163Z,18.43
2019-01-03T13:32:31.879Z,14.73
2019-01-03T13:35:00.279Z,17.17
2019-01-03T13:37:28.708Z,18.43
2019-01-03T13:39:58.042Z,15.67
2019-01-03T13:42:26.454Z,14.07
2019-01-03T13:44:54.881Z,16.10
2019-01-03T13:47:23.286Z,17.53
2019-01-03T13:49:51.746Z,15.20
2019-01-03T13:52:20.197Z,14.50
2019-01-03T13:54:48.605Z,16.37
2019-01-03T13:57:17.014Z,14.03
2019-01-03T13:59:45.482Z,12.30
2019-01-03T14:02:13.896Z,11.20
2019-01-03T14:04:42.364Z,10.07
2019-01-03T14:07:10.835Z,13.73
2019-01-03T14:09:39.450Z,11.83
2019-01-03T14:12:08.091Z,10.60
2019-01-03T14:18:06.315Z,11.60
2019-01-03T14:20:34.932Z,11.43
2019-01-03T14:23:03.453Z,10.10
2019-01-03T14:25:32.028Z,12.37
2019-01-03T14:28:00.453Z,9.80
2019-01-03T14:30:29.110Z,7.83
2019-01-03T14:32:57.558Z,9.00
2019-01-03T14:35:25.942Z,9.90
2019-01-03T14:37:54.384Z,8.67
2019-01-03T14:40:22.784Z,6.30
2019-01-03T14:42:51.177Z,7.17
2019-01-03T14:45:19.614Z,7.70
2019-01-03T14:47:48.000Z,8.20
2019-01-03T14:50:16.394Z,6.33
2019-01-03T14:52:44.843Z,8.90
2019-01-03T14:55:13.417Z,9.73
2019-01-03T14:57:41.816Z,9.47
2019-01-03T15:00:12.874Z,10.83
2019-01-03T15:02:41.289Z,8.90
2019-01-03T15:05:13.944Z,7.90
2019-01-03T15:07:40.018Z,13.33
2019-01-03T15:10:08.782Z,7.80
2019-01-03T15:12:37.393Z,8.60
2019-01-03T15:15:07.057Z,8.30
2019-01-03T15:17:35.454Z,7.97
2019-01-03T15:20:04.876Z,7.27
2019-01-03T15:22:33.314Z,8.90
2019-01-03T15:25:01.714Z,9.17
2019-01-03T15:27:30.173Z,9.80
2019-01-03T15:29:58.593Z,8.17
2019-01-03T15:32:27.114Z,10.53
2019-01-03T15:34:55.508Z,11.80
2019-01-03T15:37:23.939Z,9.80
2019-01-03T15:39:52.337Z,11.73
2019-01-03T15:42:20.806Z,8.47
2019-01-03T15:44:49.228Z,7.33
2019-01-03T15:47:17.631Z,8.07
2019-01-03T15:49:46.026Z,11.20
2019-01-03T15:53:01.308Z,10.00
2019-01-03T15:55:29.719Z,9.40
2019-01-03T15:57:58.170Z,9.53
2019-01-03T16:00:26.569Z,8.23
2019-01-03T16:02:54.951Z,8.63
2019-01-03T16:05:23.397Z,12.23
2019-01-03T16:07:51.794Z,10.83
2019-01-03T16:10:20.193Z,9.47
2019-01-03T16:12:48.636Z,10.73
2019-01-03T16:15:17.030Z,11.30
2019-01-03T16:17:45.424Z,10.60
2019-01-03T16:20:14.074Z,10.63
2019-01-03T16:22:42.479Z,11.80
2019-01-03T16:25:10.898Z,9.73
2019-01-03T16:27:39.309Z,8.87
2019-01-03T16:30:09.580Z,9.90
2019-01-03T16:32:38.097Z,9.13
2019-01-03T16:35:07.400Z,9.80
2019-01-03T16:37:35.843Z,10.10
2019-01-03T16:40:05.869Z,7.23
2019-01-03T16:42:41.845Z,9.30
2019-01-03T16:45:11.891Z,9.33
2019-01-03T16:47:40.277Z,8.03
2019-01-03T16:50:15.398Z,8.50
2019-01-03T16:52:43.865Z,5.80
2019-01-03T16:55:12.682Z,5.90
2019-01-03T16:57:41.159Z,7.10
2019-01-03T17:00:11.235Z,6.37
2019-01-03T17:02:39.768Z,7.20
2019-01-03T17:05:08.141Z,7.60
2019-01-03T17:07:36.596Z,7.87
2019-01-03T17:10:08.111Z,8.50
2019-01-03T17:12:36.504Z,9.57
2019-01-03T17:15:05.418Z,7.33
2019-01-03T17:17:33.841Z,6.30
2019-01-03T17:20:02.243Z,8.47
2019-01-03T17:22:30.661Z,8.13
2019-01-03T17:24:59.094Z,10.43
2019-01-03T17:27:27.481Z,6.67
2019-01-03T17:29:55.878Z,4.93
2019-01-03T17:32:24.321Z,5.43
2019-01-03T17:34:52.720Z,8.83
2019-01-03T17:37:21.123Z,12.23
2019-01-03T17:39:49.546Z,8.23
2019-01-03T17:42:17.945Z,6.00
2019-01-03T17:44:46.386Z,6.67
2019-01-03T17:47:14.792Z,8.47
2019-01-03T17:49:43.200Z,6.63
2019-01-03T17:52:11.593Z,13.47
2019-01-03T17:54:40.194Z,9.60
2019-01-03T17:57:08.612Z,9.23
2019-01-03T17:59:37.270Z,8.20
2019-01-03T18:02:06.351Z,9.97
2019-01-03T18:04:34.774Z,9.77
2019-01-03T18:07:03.179Z,10.63
2019-01-03T18:09:31.626Z,8.10
2019-01-03T18:12:00.013Z,9.60
2019-01-03T18:14:28.409Z,9.60
2019-01-03T18:16:56.825Z,7.70
2019-01-03T18:19:25.254Z,9.40
2019-01-03T18:21:53.699Z,7.93
2019-01-03T18:24:22.076Z,9.03
2019-01-03T18:26:50.477Z,10.43
2019-01-03T18:29:18.896Z,9.23
2019-01-03T18:31:47.301Z,10.70
2019-01-03T18:34:15.676Z,9.20
2019-01-03T18:36:44.139Z,10.10
2019-01-03T18:39:12.533Z,10.60
2019-01-03T18:41:41.211Z,8.10
2019-01-03T18:44:09.648Z,10.43
2019-01-03T18:46:38.101Z,7.30
2019-01-03T18:49:06.566Z,10.10
2019-01-03T18:51:34.972Z,7.63
2019-01-03T18:54:03.370Z,10.13
2019-01-03T18:56:31.811Z,8.80
2019-01-03T18:59:00.201Z,7.57
2019-01-03T19:01:28.781Z,8.50
2019-01-03T19:03:57.201Z,8.97
2019-01-03T19:06:25.601Z,12.97
2019-01-03T19:08:54.007Z,9.67
2019-01-03T19:11:22.448Z,11.20
2019-01-03T19:13:50.841Z,10.93
2019-01-03T19:16:19.292Z,10.40
2019-01-03T19:18:47.687Z,9.63
2019-01-03T19:21:16.121Z,8.83
2019-01-03T19:23:44.684Z,9.67
2019-01-03T19:26:13.302Z,11.57
2019-01-03T19:28:41.703Z,10.47
2019-01-03T19:31:10.158Z,11.37
2019-01-03T19:33:38.553Z,14.53
2019-01-03T19:36:06.951Z,10.73
2019-01-03T19:38:35.387Z,13.80
2019-01-03T19:41:03.790Z,11.37
2019-01-03T19:43:32.197Z,10.97
2019-01-03T19:46:01.413Z,12.73
2019-01-03T19:48:29.813Z,10.23
2019-01-03T19:50:58.261Z,14.53
2019-01-03T19:53:26.823Z,8.40
2019-01-03T19:55:55.221Z,10.53
2019-01-03T19:58:23.645Z,10.03
2019-01-03T20:00:52.153Z,14.20
2019-01-03T20:03:20.549Z,11.00
2019-01-03T20:05:49.016Z,11.20
2019-01-03T20:08:17.530Z,11.23
2019-01-03T20:10:45.926Z,12.30
2019-01-03T20:13:14.308Z,11.70
2019-01-03T20:15:42.749Z,16.90
2019-01-03T20:18:11.136Z,12.53
2019-01-03T20:20:39.533Z,13.30
2019-01-03T20:23:08.006Z,12.87
2019-01-03T20:25:36.442Z,14.50
2019-01-03T20:28:04.849Z,11.53
2019-01-03T20:30:33.237Z,11.17
2019-01-03T20:33:01.663Z,15.10
2019-01-03T20:35:30.069Z,11.53
2019-01-03T20:37:58.481Z,14.37
2019-01-03T20:40:26.913Z,9.87
2019-01-03T20:42:55.308Z,10.87
2019-01-03T20:45:23.832Z,13.27
2019-01-03T20:47:52.232Z,13.50
2019-01-03T20:50:20.626Z,10.60
2019-01-03T20:52:49.071Z,12.67
2019-01-03T20:55:17.735Z,13.00
2019-01-03T20:57:46.134Z,13.77
2019-01-03T21:00:16.100Z,17.10
2019-01-03T21:02:44.487Z,14.73
2019-01-03T21:05:12.965Z,13.37
2019-01-03T21:07:41.447Z,17.40
2019-01-03T21:10:11.289Z,15.40
2019-01-03T21:12:39.685Z,15.50
2019-01-03T21:15:11.564Z,18.13
2019-01-03T21:17:39.960Z,19.23
2019-01-03T21:20:11.023Z,20.03
2019-01-03T21:22:39.536Z,14.67
2019-01-03T21:25:09.081Z,15.03
2019-01-03T21:27:37.537Z,17.57
2019-01-03T21:30:09.053Z,19.67
2019-01-03T21:32:37.469Z,15.37
2019-01-03T21:35:06.032Z,19.07
2019-01-03T21:37:34.473Z,16.67
2019-01-03T21:40:03.028Z,15.90
2019-01-03T21:42:31.428Z,17.63
2019-01-03T21:44:59.866Z,15.67
2019-01-03T21:47:28.428Z,18.07
2019-01-03T21:49:57.239Z,17.07
2019-01-03T21:52:25.646Z,19.37
2019-01-03T21:54:54.547Z,17.23
2019-01-03T21:57:22.960Z,18.57
2019-01-03T21:59:51.420Z,18.67
2019-01-03T22:02:19.897Z,19.83
2019-01-03T22:04:48.292Z,19.53
2019-01-03T22:07:16.741Z,19.40
2019-01-03T22:09:45.434Z,21.93
2019-01-03T22:12:13.836Z,22.40
2019-01-03T22:14:42.270Z,20.40
2019-01-03T22:17:10.681Z,21.03
2019-01-03T22:19:39.302Z,19.83
2019-01-03T22:22:07.717Z,22.53
2019-01-03T22:24:36.187Z,21.00
2019-01-03T22:27:04.621Z,22.00
2019-01-03T22:29:33.229Z,22.47
2019-01-03T22:32:01.672Z,24.80
2019-01-03T22:34:30.114Z,23.37
2019-01-03T22:36:58.715Z,23.67
2019-01-03T22:39:27.298Z,24.30
2019-01-03T22:41:55.984Z,25.07
2019-01-03T22:44:24.773Z,27.03
2019-01-03T22:46:53.172Z,22.87
2019-01-03T22:49:21.619Z,23.27
2019-01-03T22:51:50.031Z,25.80
2019-01-03T22:54:18.414Z,23.07
2019-01-03T22:56:47.276Z,23.87
2019-01-03T22:59:15.675Z,27.40
2019-01-03T23:01:46.309Z,27.37
2019-01-03T23:04:15.128Z,25.13
2019-01-03T23:06:43.538Z,24.97
2019-01-03T23:09:12.004Z,29.77
2019-01-03T23:11:40.838Z,25.77
2019-01-03T23:14:09.239Z,28.40
2019-01-03T23:16:37.721Z,27.70
2019-01-03T23:19:06.167Z,26.23
2019-01-03T23:21:34.576Z,28.83
2019-01-03T23:24:03.003Z,27.30
2019-01-03T23:26:31.442Z,28.97
2019-01-03T23:28:59.905Z,31.17
2019-01-03T23:31:28.405Z,27.37
2019-01-03T23:33:56.830Z,29.83
2019-01-03T23:36:25.301Z,27.93
2019-01-03T23:38:53.833Z,32.50
2019-01-03T23:41:22.743Z,28.37
2019-01-03T23:43:51.153Z,31.17
2019-01-03T23:46:19.686Z,28.67
2019-01-03T23:48:48.077Z,32.13
2019-01-03T23:51:16.497Z,28.83
2019-01-03T23:53:45.295Z,30.93
2019-01-03T23:56:14.072Z,28.27
2019-01-03T23:58:42.500Z,31.17
